Time;durP1;ratioP1;P1;durP2;ratioP2;P2;SDS_P1;SDS_P2;PMS_P1;PMS_P2;Temp;Humidity;BMP_temperature;BMP_pressure;BME280_temperature;BME280_humidity;BME280_pressure;Samples;Min_cycle;Max_cycle;Signal;HPM_P1;HPM_P2
2023/05/18 00:00:32;;;;;;;1.17;0.50;;;13.90;99.90;;;;;;6063241;23;20387;-82
2023/05/18 00:03:00;;;;;;;0.73;0.40;;;13.90;99.90;;;;;;6063900;23;20383;-81
2023/05/18 00:05:32;;;;;;;0.63;0.28;;;13.90;99.90;;;;;;6063364;23;20402;-81
2023/05/18 00:08:00;;;;;;;0.50;0.32;;;13.90;99.90;;;;;;6064236;23;20688;-81
2023/05/18 00:10:28;;;;;;;0.90;0.40;;;13.80;99.90;;;;;;6039803;23;20375;-82
2023/05/18 00:12:55;;;;;;;0.40;0.30;;;13.90;99.90;;;;;;6040021;23;20391;-82
2023/05/18 00:15:22;;;;;;;0.30;0.30;;;13.90;99.90;;;;;;6039367;23;20386;-81
2023/05/18 00:17:49;;;;;;;1.30;0.40;;;13.80;99.90;;;;;;6063803;23;20386;-81
2023/05/18 00:20:17;;;;;;;0.70;0.40;;;13.80;99.90;;;;;;6064262;23;20385;-82
2023/05/18 00:22:47;;;;;;;0.40;0.30;;;13.80;99.90;;;;;;6062669;23;20430;-82
2023/05/18 00:25:13;;;;;;;0.50;0.22;;;13.80;99.90;;;;;;6064282;23;20379;-82
2023/05/18 00:27:40;;;;;;;2.10;0.40;;;13.80;99.90;;;;;;6063264;23;20932;-82
2023/05/18 00:30:08;;;;;;;0.68;0.30;;;13.80;99.90;;;;;;6064489;23;20375;-82
2023/05/18 00:32:35;;;;;;;0.50;0.50;;;13.80;99.90;;;;;;6062915;23;20383;-82
2023/05/18 00:35:02;;;;;;;0.90;0.30;;;13.80;99.90;;;;;;6064023;23;20375;-82
2023/05/18 00:37:29;;;;;;;0.50;0.20;;;13.80;99.90;;;;;;6063351;23;20730;-82
2023/05/18 00:39:55;;;;;;;0.70;0.30;;;13.80;99.90;;;;;;6064153;23;20375;-82
2023/05/18 00:42:22;;;;;;;1.38;0.50;;;13.80;99.90;;;;;;6065001;23;20375;-82
2023/05/18 00:44:49;;;;;;;0.55;0.30;;;13.80;99.90;;;;;;6058113;23;20376;-82
2023/05/18 00:47:19;;;;;;;0.90;0.20;;;13.80;99.90;;;;;;6035289;23;20692;-82
2023/05/18 00:49:46;;;;;;;0.70;0.40;;;13.80;99.90;;;;;;6034416;23;20373;-81
2023/05/18 00:52:14;;;;;;;1.55;0.40;;;13.80;99.90;;;;;;6056579;23;20404;-82
2023/05/18 00:54:42;;;;;;;0.30;0.25;;;13.80;99.90;;;;;;6062593;23;20821;-82
2023/05/18 00:57:09;;;;;;;0.57;0.30;;;13.80;99.90;;;;;;6063786;23;20387;-82
2023/05/18 00:59:36;;;;;;;0.63;0.20;;;13.80;99.90;;;;;;6063060;23;20492;-82
2023/05/18 13:29:28;;;;;;;1.05;0.40;;;18.50;74.10;;;;;;6121285;23;20371;-80
2023/05/18 13:31:55;;;;;;;0.30;0.30;;;18.50;72.90;;;;;;6122551;23;20372;-80
2023/05/18 13:34:22;;;;;;;0.45;0.35;;;18.30;73.20;;;;;;6097118;23;20739;-81
2023/05/18 13:36:49;;;;;;;1.00;0.40;;;18.30;73.90;;;;;;6121994;23;20375;-81
2023/05/18 13:39:16;;;;;;;0.50;0.40;;;18.20;76.10;;;;;;6097371;23;20375;-81
2023/05/18 13:41:43;;;;;;;0.90;0.43;;;18.20;76.30;;;;;;6093805;23;20383;-81
2023/05/18 13:44:13;;;;;;;0.80;0.50;;;18.20;78.00;;;;;;6096344;23;20379;-81
2023/05/18 13:46:40;;;;;;;1.20;0.40;;;18.20;75.90;;;;;;6096307;23;20411;-82
2023/05/18 13:49:07;;;;;;;0.30;0.30;;;18.20;78.10;;;;;;6096658;23;20430;-82
2023/05/18 13:51:34;;;;;;;0.57;0.40;;;18.30;79.40;;;;;;6095114;23;20383;-81
2023/05/18 13:54:01;;;;;;;1.20;0.30;;;18.30;77.40;;;;;;6096729;23;20380;-81
2023/05/18 13:56:27;;;;;;;1.00;0.40;;;18.40;76.20;;;;;;6095499;23;20434;-81
2023/05/18 13:58:54;;;;;;;1.10;0.45;;;18.50;76.20;;;;;;6096940;23;20379;-81
2023/05/18 14:01:22;;;;;;;0.70;0.40;;;18.50;75.30;;;;;;6096630;23;20388;-82
2023/05/18 14:03:49;;;;;;;0.85;0.30;;;18.50;74.90;;;;;;6095229;23;20432;-81
2023/05/18 14:06:16;;;;;;;0.40;0.30;;;18.60;74.60;;;;;;6093412;23;20373;-82
2023/05/18 14:08:43;;;;;;;0.52;0.30;;;18.60;71.50;;;;;;6093032;23;20381;-81
2023/05/18 14:11:10;;;;;;;0.60;0.40;;;18.70;67.00;;;;;;6094098;23;20409;-82
2023/05/18 14:13:37;;;;;;;0.73;0.55;;;18.60;67.20;;;;;;6092353;23;20424;-81
2023/05/18 14:16:04;;;;;;;0.30;0.30;;;18.60;70.20;;;;;;6091597;23;20369;-81
2023/05/18 14:18:31;;;;;;;0.55;0.20;;;18.70;69.90;;;;;;6089611;23;20681;-81
2023/05/18 14:21:00;;;;;;;0.30;0.20;;;18.90;71.70;;;;;;6093609;23;20843;-81
2023/05/18 14:23:28;;;;;;;0.40;0.20;;;19.00;69.70;;;;;;6093452;23;20381;-82
2023/05/18 14:25:58;;;;;;;0.60;0.40;;;19.10;65.50;;;;;;6092851;23;20691;-82
2023/05/18 14:28:25;;;;;;;4.65;2.80;;;19.20;63.10;;;;;;6094379;23;20448;-82
2023/05/18 14:30:52;;;;;;;1.60;0.90;;;19.20;64.90;;;;;;6092494;23;20382;-82
2023/05/18 14:33:19;;;;;;;0.80;0.50;;;19.30;65.80;;;;;;6093377;23;20377;-82
2023/05/18 14:35:46;;;;;;;0.77;0.57;;;19.40;65.40;;;;;;6092398;23;20374;-82
2023/05/18 14:38:13;;;;;;;0.73;0.60;;;19.40;64.40;;;;;;6093886;23;20374;-81
2023/05/18 14:40:39;;;;;;;1.17;0.85;;;19.40;64.50;;;;;;6092053;23;20388;-82
2023/05/18 14:43:06;;;;;;;1.75;0.70;;;19.50;65.00;;;;;;6093783;23;20381;-82
2023/05/18 14:45:33;;;;;;;0.77;0.65;;;19.50;62.20;;;;;;6092708;23;20378;-82
2023/05/18 14:48:00;;;;;;;0.65;0.60;;;19.50;63.60;;;;;;6092179;23;20372;-82
2023/05/18 14:50:27;;;;;;;1.45;1.10;;;19.50;64.80;;;;;;6092888;23;20374;-82
2023/05/18 14:52:54;;;;;;;1.45;1.30;;;19.40;65.10;;;;;;6092865;23;20401;-82
2023/05/18 14:55:21;;;;;;;0.88;0.80;;;19.30;63.10;;;;;;6093140;23;20437;-82
2023/05/18 14:57:48;;;;;;;1.20;0.80;;;19.20;63.10;;;;;;6091882;23;20420;-82
2023/05/18 15:00:15;;;;;;;0.73;0.73;;;19.00;62.80;;;;;;6092858;23;20465;-81
2023/05/18 15:02:42;;;;;;;0.70;0.70;;;18.90;65.50;;;;;;6092185;23;20377;-81
2023/05/18 15:05:10;;;;;;;1.17;0.85;;;18.80;68.40;;;;;;6093131;23;20724;-83
2023/05/18 15:07:36;;;;;;;1.33;0.90;;;18.80;71.10;;;;;;6092963;23;20685;-82
2023/05/18 15:10:04;;;;;;;1.15;0.90;;;18.80;71.80;;;;;;6068222;23;20372;-82
2023/05/18 15:12:31;;;;;;;1.17;1.08;;;18.80;72.50;;;;;;6093168;23;20389;-82
2023/05/18 15:14:57;;;;;;;2.27;0.90;;;18.80;73.00;;;;;;6092984;23;20386;-82
2023/05/18 15:17:24;;;;;;;1.00;0.90;;;18.80;72.70;;;;;;6092871;23;20385;-82
2023/05/18 15:19:51;;;;;;;1.30;0.88;;;18.80;73.10;;;;;;6091955;23;20694;-82
2023/05/18 15:22:18;;;;;;;1.20;0.70;;;18.70;72.80;;;;;;6092459;23;20436;-82
2023/05/18 15:24:45;;;;;;;1.45;1.00;;;18.60;73.60;;;;;;6091160;23;20380;-82
2023/05/18 15:27:12;;;;;;;0.98;0.80;;;18.60;76.00;;;;;;6090943;23;20448;-82
2023/05/18 15:29:39;;;;;;;0.90;0.80;;;18.60;73.90;;;;;;6092416;23;20374;-83
2023/05/18 15:32:06;;;;;;;1.80;0.93;;;18.60;73.60;;;;;;6092293;23;20370;-82
2023/05/18 15:34:34;;;;;;;1.37;0.90;;;18.50;73.60;;;;;;6092607;23;20378;-82
2023/05/18 15:37:01;;;;;;;1.55;1.13;;;18.50;73.40;;;;;;6091903;23;20374;-82
2023/05/18 15:39:28;;;;;;;2.10;1.13;;;18.50;75.30;;;;;;6093065;23;20378;-83
2023/05/18 15:41:55;;;;;;;1.37;1.00;;;18.40;76.70;;;;;;6092183;23;20448;-82
2023/05/18 15:44:22;;;;;;;1.30;0.90;;;18.40;78.10;;;;;;6092793;23;20390;-82
2023/05/18 15:46:49;;;;;;;1.10;1.00;;;18.30;77.90;;;;;;6091462;23;20385;-82
2023/05/18 15:49:17;;;;;;;2.03;1.13;;;18.30;76.70;;;;;;6091084;23;20380;-83
2023/05/18 15:51:44;;;;;;;1.77;1.13;;;18.20;77.70;;;;;;6090996;23;20388;-81
2023/05/18 15:54:11;;;;;;;1.00;0.90;;;18.20;78.70;;;;;;6092477;23;20720;-82
2023/05/18 15:56:38;;;;;;;1.40;1.30;;;18.20;77.10;;;;;;6093826;23;20762;-82
2023/05/18 15:59:07;;;;;;;1.93;1.67;;;18.20;74.60;;;;;;6093350;23;20373;-82
2023/05/18 16:01:34;;;;;;;1.77;1.67;;;18.10;76.80;;;;;;6093748;23;20374;-82
2023/05/18 16:04:01;;;;;;;2.10;1.70;;;18.00;78.80;;;;;;6092826;23;20436;-82
2023/05/18 16:06:28;;;;;;;2.78;1.45;;;17.90;79.30;;;;;;6092597;23;20406;-82
2023/05/18 16:08:55;;;;;;;1.40;1.30;;;17.90;81.00;;;;;;6089946;23;20698;-82
2023/05/18 16:11:22;;;;;;;1.42;1.33;;;17.90;84.10;;;;;;6092112;23;20428;-82
2023/05/18 16:13:52;;;;;;;2.20;1.35;;;17.90;82.20;;;;;;6091627;23;20384;-81
2023/05/18 16:16:21;;;;;;;1.58;1.48;;;17.90;82.50;;;;;;6091933;23;20385;-82
2023/05/18 16:18:49;;;;;;;1.90;1.60;;;17.90;80.80;;;;;;6091351;23;20895;-81
2023/05/18 16:21:16;;;;;;;1.80;1.60;;;17.90;80.70;;;;;;6092211;23;20369;-83
2023/05/18 16:23:44;;;;;;;3.10;1.75;;;17.80;81.70;;;;;;6092393;23;20388;-82
2023/05/18 16:26:12;;;;;;;1.90;1.70;;;17.80;81.90;;;;;;6091648;23;20388;-81
2023/05/18 16:28:39;;;;;;;2.20;1.73;;;17.80;82.30;;;;;;6091920;23;20876;-82
2023/05/18 16:31:10;;;;;;;1.55;1.45;;;17.70;84.10;;;;;;6091191;23;20377;-82
2023/05/18 16:33:38;;;;;;;1.85;1.50;;;17.70;85.40;;;;;;6092821;23;20481;-82
2023/05/18 16:36:06;;;;;;;2.10;1.20;;;17.60;86.10;;;;;;6091652;23;20385;-81
2023/05/18 16:38:34;;;;;;;0.80;0.70;;;17.70;85.40;;;;;;6088733;23;20378;-81
2023/05/18 16:41:02;;;;;;;0.75;0.73;;;17.70;85.00;;;;;;6091540;23;20396;-80
2023/05/18 16:43:28;;;;;;;0.90;0.80;;;17.70;84.10;;;;;;6092431;23;20388;-80
2023/05/18 16:45:56;;;;;;;0.70;0.68;;;17.80;83.70;;;;;;6091340;23;20377;-81
2023/05/18 16:48:23;;;;;;;0.70;0.50;;;17.80;83.50;;;;;;6092006;23;20378;-81
2023/05/18 16:50:49;;;;;;;0.90;0.70;;;17.90;83.70;;;;;;6091305;23;20382;-80
2023/05/18 16:53:16;;;;;;;1.35;0.75;;;17.90;84.50;;;;;;6092072;23;20373;-81
2023/05/18 16:55:43;;;;;;;0.95;0.85;;;18.00;81.10;;;;;;6092217;23;20764;-83
2023/05/18 16:58:10;;;;;;;1.60;1.00;;;17.90;78.80;;;;;;6090291;23;20712;-83
2023/05/18 17:00:37;;;;;;;1.10;0.90;;;17.90;80.20;;;;;;6089841;23;20385;-82
2023/05/18 17:03:04;;;;;;;0.90;0.80;;;17.90;81.00;;;;;;6090888;23;20437;-82
2023/05/18 17:05:33;;;;;;;1.10;0.87;;;17.80;78.80;;;;;;6092474;23;20767;-82
2023/05/18 17:08:00;;;;;;;0.68;0.60;;;17.70;77.60;;;;;;6091233;23;20465;-82
2023/05/18 17:10:27;;;;;;;0.60;0.40;;;17.70;77.90;;;;;;6092799;23;20374;-82
2023/05/18 17:12:55;;;;;;;0.75;0.60;;;17.70;78.70;;;;;;6092118;23;20437;-82
2023/05/18 17:15:22;;;;;;;1.63;0.80;;;17.70;79.40;;;;;;6091227;23;20385;-82
2023/05/18 17:17:49;;;;;;;0.60;0.50;;;17.60;80.00;;;;;;6092459;23;20382;-82
2023/05/18 17:20:16;;;;;;;1.77;0.90;;;17.60;80.30;;;;;;6092994;23;20405;-83
2023/05/18 17:22:43;;;;;;;1.60;1.10;;;17.60;81.50;;;;;;6092131;23;20381;-82
2023/05/18 17:25:10;;;;;;;0.95;0.85;;;17.60;82.20;;;;;;6091965;23;20395;-82
2023/05/18 17:27:37;;;;;;;1.38;0.70;;;17.50;81.60;;;;;;6091342;23;20378;-82
2023/05/18 17:30:04;;;;;;;0.57;0.50;;;17.50;82.40;;;;;;6092838;23;20377;-82
2023/05/18 17:32:31;;;;;;;1.67;1.02;;;17.50;83.60;;;;;;6091403;23;20689;-82
2023/05/18 17:34:58;;;;;;;1.02;0.75;;;17.50;83.60;;;;;;6091529;23;20397;-82
2023/05/18 17:37:25;;;;;;;1.08;0.90;;;17.40;82.90;;;;;;6092188;23;20369;-82
2023/05/18 17:39:52;;;;;;;1.20;1.08;;;17.40;82.00;;;;;;6094038;23;20377;-82
2023/05/18 17:42:19;;;;;;;0.70;0.70;;;17.40;82.50;;;;;;6093317;23;20440;-82
2023/05/18 17:44:46;;;;;;;1.00;0.90;;;17.30;82.50;;;;;;6093458;23;20388;-82
2023/05/18 17:47:13;;;;;;;1.30;0.90;;;17.30;83.40;;;;;;6092454;23;20377;-82
2023/05/18 17:49:40;;;;;;;1.90;1.00;;;17.20;84.60;;;;;;6094268;23;20377;-82
2023/05/18 17:52:07;;;;;;;1.25;0.90;;;17.20;86.30;;;;;;6093070;23;20489;-82
2023/05/18 17:54:34;;;;;;;1.60;1.27;;;17.20;87.40;;;;;;6094388;23;20423;-82
2023/05/18 17:57:01;;;;;;;1.45;1.02;;;17.10;88.30;;;;;;6092708;23;20377;-82
2023/05/18 17:59:27;;;;;;;1.23;1.02;;;17.10;88.90;;;;;;6093976;23;20440;-82
2023/05/18 18:01:55;;;;;;;1.40;1.10;;;17.00;89.60;;;;;;6091774;23;20393;-82
2023/05/18 18:04:22;;;;;;;1.90;1.30;;;17.00;90.30;;;;;;6093459;23;20369;-82
2023/05/18 18:06:52;;;;;;;1.00;0.90;;;17.00;91.10;;;;;;6093902;23;20395;-82
2023/05/18 18:09:21;;;;;;;1.10;0.80;;;16.90;91.50;;;;;;6093390;23;20699;-81
2023/05/18 18:11:48;;;;;;;1.00;0.70;;;16.90;91.90;;;;;;6093560;23;20380;-82
2023/05/18 18:14:16;;;;;;;1.33;1.17;;;16.90;92.60;;;;;;6093841;23;20378;-82
2023/05/18 18:16:43;;;;;;;2.03;1.20;;;16.90;93.20;;;;;;6093971;23;20389;-82
2023/05/18 18:19:10;;;;;;;1.60;1.23;;;16.80;93.70;;;;;;6093304;23;20388;-82
2023/05/18 18:21:37;;;;;;;1.80;1.33;;;16.80;94.30;;;;;;6093995;23;20752;-82
2023/05/18 18:24:04;;;;;;;2.03;1.60;;;16.80;94.90;;;;;;6093022;23;20388;-81
2023/05/18 18:26:31;;;;;;;4.90;3.10;;;16.80;95.70;;;;;;6093940;23;20365;-82
2023/05/18 18:28:58;;;;;;;2.53;2.00;;;16.70;96.30;;;;;;6088640;23;20431;-81
2023/05/18 18:31:25;;;;;;;3.57;2.10;;;16.70;96.70;;;;;;6064576;23;20375;-81
2023/05/18 18:33:52;;;;;;;2.40;2.03;;;16.60;97.30;;;;;;6066052;23;20383;-82
2023/05/18 18:36:19;;;;;;;2.70;2.20;;;16.60;97.90;;;;;;6088239;23;20442;-82
2023/05/18 18:38:46;;;;;;;2.50;2.30;;;16.60;98.50;;;;;;6088363;23;20706;-82
2023/05/18 18:41:16;;;;;;;1.90;1.63;;;16.50;99.00;;;;;;6088657;23;20375;-82
2023/05/18 18:43:43;;;;;;;1.42;1.27;;;16.50;99.40;;;;;;6088161;23;20390;-81
2023/05/18 18:46:10;;;;;;;1.40;1.00;;;16.50;99.90;;;;;;6087747;23;20450;-82
2023/05/18 18:48:37;;;;;;;1.20;1.10;;;16.40;99.90;;;;;;6088551;23;20477;-82
2023/05/18 18:51:04;;;;;;;1.00;0.80;;;16.40;99.90;;;;;;6087284;23;20442;-82
2023/05/18 18:53:31;;;;;;;1.05;0.90;;;16.30;99.90;;;;;;6065637;23;20766;-82
2023/05/18 18:55:58;;;;;;;1.50;1.40;;;16.30;99.90;;;;;;6087012;23;20383;-82
2023/05/18 18:58:25;;;;;;;1.67;1.23;;;16.30;99.90;;;;;;6088158;23;20375;-82
2023/05/18 19:00:52;;;;;;;1.50;1.40;;;16.30;99.90;;;;;;6088509;23;20707;-83
2023/05/18 19:03:20;;;;;;;1.38;1.15;;;16.20;99.90;;;;;;6087857;23;20383;-83
2023/05/18 19:05:48;;;;;;;1.83;1.00;;;16.20;99.90;;;;;;6088553;23;20375;-82
2023/05/18 19:08:15;;;;;;;1.77;1.30;;;16.10;99.90;;;;;;6065438;23;20398;-82
2023/05/18 19:10:43;;;;;;;1.30;1.10;;;16.00;99.90;;;;;;6088108;23;20383;-83
2023/05/18 19:13:10;;;;;;;2.40;1.95;;;16.00;99.90;;;;;;6087244;23;20691;-82
2023/05/18 19:15:38;;;;;;;3.05;2.00;;;16.00;99.90;;;;;;6088229;23;20387;-83
2023/05/18 19:18:06;;;;;;;2.00;1.70;;;16.00;99.90;;;;;;6087810;23;20394;-82
2023/05/18 19:20:33;;;;;;;1.20;0.90;;;16.00;99.90;;;;;;6088587;23;20383;-82
2023/05/18 19:23:00;;;;;;;2.28;1.50;;;15.90;99.90;;;;;;6088320;23;20458;-83
2023/05/18 19:25:28;;;;;;;2.22;2.03;;;15.90;99.90;;;;;;6087765;23;20382;-83
2023/05/18 19:27:56;;;;;;;1.75;1.60;;;15.90;99.90;;;;;;6087436;23;20466;-82
2023/05/18 19:30:23;;;;;;;1.70;1.58;;;15.90;99.90;;;;;;6087326;23;20383;-83
2023/05/18 19:32:52;;;;;;;2.70;2.20;;;15.90;99.90;;;;;;6087998;23;20415;-83
2023/05/18 19:35:20;;;;;;;2.87;2.17;;;15.90;99.90;;;;;;6087244;23;20406;-83
2023/05/18 19:37:47;;;;;;;2.10;1.90;;;15.80;99.90;;;;;;6088173;23;20378;-83
2023/05/18 19:40:15;;;;;;;2.38;2.08;;;15.80;99.90;;;;;;6087378;23;20405;-83
2023/05/18 19:42:41;;;;;;;1.65;1.55;;;15.80;99.90;;;;;;6087142;23;20434;-83
2023/05/18 19:45:08;;;;;;;2.28;1.67;;;15.80;99.90;;;;;;6085494;23;20379;-82
2023/05/18 19:47:35;;;;;;;1.40;1.30;;;15.80;99.90;;;;;;6087974;23;20375;-83
2023/05/18 19:50:03;;;;;;;1.75;1.30;;;15.70;99.90;;;;;;6087578;23;20713;-84
2023/05/18 19:52:32;;;;;;;2.23;1.60;;;15.70;99.90;;;;;;6061477;23;20446;-83
2023/05/18 19:54:59;;;;;;;1.77;1.20;;;15.70;99.90;;;;;;6065552;23;20383;-83
2023/05/18 19:57:26;;;;;;;1.15;0.90;;;15.60;99.90;;;;;;6063257;23;20375;-83
2023/05/18 19:59:53;;;;;;;1.80;1.02;;;15.60;99.90;;;;;;6087329;23;20379;-85
2023/05/18 20:02:20;;;;;;;1.25;1.00;;;15.60;99.90;;;;;;6086812;23;20379;-82
2023/05/18 20:04:47;;;;;;;1.98;1.38;;;15.60;99.90;;;;;;6087832;23;20383;-80
2023/05/18 20:07:15;;;;;;;2.28;1.40;;;15.60;99.90;;;;;;6058740;23;20437;-83
2023/05/18 20:09:42;;;;;;;1.40;1.00;;;15.50;99.90;;;;;;6087374;23;20379;-82
2023/05/18 20:12:09;;;;;;;2.35;1.40;;;15.50;99.90;;;;;;6087037;23;20387;-82
2023/05/18 20:14:37;;;;;;;3.15;2.85;;;15.50;99.90;;;;;;6085689;23;20698;-84
2023/05/18 20:17:05;;;;;;;2.88;2.17;;;15.50;99.90;;;;;;6087674;23;20383;-83
2023/05/18 20:19:32;;;;;;;2.38;2.00;;;15.50;99.90;;;;;;6086382;23;20375;-82
2023/05/18 20:21:59;;;;;;;1.90;1.35;;;15.40;99.90;;;;;;6058605;23;20723;-84
2023/05/18 20:24:26;;;;;;;2.10;1.17;;;15.40;99.90;;;;;;6085798;23;20383;-82
2023/05/18 20:26:52;;;;;;;1.00;0.80;;;15.40;99.90;;;;;;6088014;23;20766;-81
2023/05/18 20:29:20;;;;;;;1.48;0.88;;;15.40;99.90;;;;;;6085980;23;20391;-85
2023/05/18 20:31:47;;;;;;;1.33;0.85;;;15.30;99.90;;;;;;6087860;23;20782;-82
2023/05/18 20:34:14;;;;;;;1.30;0.73;;;15.30;99.90;;;;;;6063893;23;20419;-81
2023/05/18 20:36:41;;;;;;;0.80;0.60;;;15.30;99.90;;;;;;6087792;23;20761;-82
2023/05/18 20:39:08;;;;;;;1.40;0.65;;;15.30;99.90;;;;;;6087039;23;20750;-82
2023/05/18 20:41:38;;;;;;;1.30;0.88;;;15.20;99.90;;;;;;6086774;23;20375;-82
2023/05/18 20:44:09;;;;;;;0.80;0.60;;;15.20;99.90;;;;;;6086574;23;20706;-82
2023/05/18 20:46:40;;;;;;;0.68;0.60;;;15.10;99.90;;;;;;6062831;23;20362;-83
2023/05/18 20:49:10;;;;;;;1.57;0.90;;;15.10;99.90;;;;;;6086973;23;20386;-82
2023/05/18 20:51:37;;;;;;;1.23;1.00;;;15.10;99.90;;;;;;6083896;23;20764;-82
2023/05/18 20:54:04;;;;;;;0.80;0.68;;;15.10;99.90;;;;;;6087434;23;20379;-82
2023/05/18 20:56:32;;;;;;;0.70;0.70;;;15.00;99.90;;;;;;6086503;23;20387;-82
2023/05/18 20:58:59;;;;;;;0.80;0.70;;;15.00;99.90;;;;;;6087248;23;20379;-81
2023/05/18 21:01:28;;;;;;;2.47;0.90;;;15.00;99.90;;;;;;6063172;23;20713;-82
2023/05/18 21:03:57;;;;;;;1.70;0.90;;;15.00;99.90;;;;;;6087390;23;20758;-82
2023/05/18 21:06:25;;;;;;;2.30;1.30;;;15.00;99.90;;;;;;6063550;23;20414;-82
2023/05/18 21:08:51;;;;;;;1.40;1.30;;;14.90;99.90;;;;;;6085633;23;20850;-82
2023/05/18 21:11:18;;;;;;;1.90;1.50;;;14.90;99.90;;;;;;6086254;23;20754;-82
2023/05/18 21:13:45;;;;;;;1.48;1.38;;;14.80;99.90;;;;;;6087078;23;20382;-82
2023/05/18 21:16:12;;;;;;;1.70;1.30;;;14.80;99.90;;;;;;6087211;23;20410;-82
2023/05/18 21:18:39;;;;;;;2.40;1.42;;;14.90;99.90;;;;;;6086712;23;20407;-81
2023/05/18 21:21:06;;;;;;;1.92;1.35;;;14.80;99.90;;;;;;6086830;23;20418;-81
2023/05/18 21:23:34;;;;;;;2.08;1.80;;;14.80;99.90;;;;;;6086216;23;20379;-81
2023/05/18 21:26:01;;;;;;;2.70;1.60;;;14.80;99.90;;;;;;6086371;23;20763;-82
2023/05/18 21:28:28;;;;;;;1.85;1.35;;;14.80;99.90;;;;;;6080165;23;20382;-82
2023/05/18 21:30:55;;;;;;;1.42;1.23;;;14.80;99.90;;;;;;6092123;23;20385;-81
2023/05/18 21:33:22;;;;;;;2.13;1.90;;;14.80;99.90;;;;;;6091522;23;20381;-81
2023/05/18 21:35:49;;;;;;;2.00;1.73;;;14.80;99.90;;;;;;6092096;23;20507;-81
2023/05/18 21:38:16;;;;;;;1.80;1.70;;;14.80;99.90;;;;;;6091658;23;20689;-81
2023/05/18 21:40:43;;;;;;;1.70;1.50;;;14.80;99.90;;;;;;6092526;23;20373;-82
2023/05/18 21:43:11;;;;;;;3.03;2.40;;;14.80;99.90;;;;;;6092627;23;20381;-81
2023/05/18 21:45:38;;;;;;;2.70;1.90;;;14.80;99.90;;;;;;6090081;23;20388;-82
2023/05/18 21:48:05;;;;;;;1.90;1.55;;;14.80;99.90;;;;;;6090869;23;20401;-83
2023/05/18 21:50:35;;;;;;;2.23;1.83;;;14.80;99.90;;;;;;6091555;23;20373;-82
2023/05/18 21:53:02;;;;;;;1.77;1.50;;;14.80;99.90;;;;;;6092002;23;20458;-82
2023/05/18 21:55:30;;;;;;;2.90;2.28;;;14.80;99.90;;;;;;6091310;23;20382;-82
2023/05/18 21:57:57;;;;;;;2.22;2.03;;;14.80;99.90;;;;;;6091696;23;20370;-82
2023/05/18 22:00:25;;;;;;;2.33;1.58;;;14.80;99.90;;;;;;6091414;23;20400;-81
2023/05/18 22:02:52;;;;;;;1.80;1.48;;;14.70;99.90;;;;;;6090194;23;20378;-81
2023/05/18 22:05:20;;;;;;;2.50;1.90;;;14.70;99.90;;;;;;6090244;23;20387;-81
2023/05/18 22:07:47;;;;;;;2.60;2.40;;;14.70;99.90;;;;;;6092332;23;20385;-81
2023/05/18 22:10:14;;;;;;;2.97;2.20;;;14.70;99.90;;;;;;6091061;23;20404;-81
2023/05/18 22:12:42;;;;;;;3.28;2.33;;;14.70;99.90;;;;;;6090875;23;20370;-82
2023/05/18 22:15:10;;;;;;;2.70;2.20;;;14.60;99.90;;;;;;6091928;23;20393;-80
2023/05/18 22:17:37;;;;;;;2.10;1.90;;;14.60;99.90;;;;;;6090883;23;20389;-82
2023/05/18 22:20:09;;;;;;;1.55;1.42;;;14.50;99.90;;;;;;6092311;23;20464;-82
2023/05/18 22:22:39;;;;;;;2.20;2.00;;;14.50;99.90;;;;;;6090685;23;20381;-82
2023/05/18 22:25:06;;;;;;;1.60;1.50;;;14.50;99.90;;;;;;6093050;23;20389;-82
2023/05/18 22:27:35;;;;;;;1.67;1.27;;;14.50;99.90;;;;;;6092153;23;20464;-82
2023/05/18 22:30:06;;;;;;;1.50;1.40;;;14.50;99.90;;;;;;6093457;23;20377;-82
2023/05/18 22:32:33;;;;;;;2.65;2.00;;;14.50;99.90;;;;;;6092701;23;20408;-82
2023/05/18 22:35:00;;;;;;;3.10;2.20;;;14.50;99.90;;;;;;6093580;23;20393;-82
2023/05/18 22:37:27;;;;;;;4.90;2.63;;;14.50;99.90;;;;;;6092707;23;20381;-82
2023/05/18 22:39:54;;;;;;;3.00;2.67;;;14.50;99.90;;;;;;6093696;23;20449;-82
2023/05/18 22:42:21;;;;;;;2.38;2.10;;;14.40;99.90;;;;;;6093019;23;20437;-81
2023/05/18 22:44:48;;;;;;;2.50;2.17;;;14.40;99.90;;;;;;6093443;23;20373;-82
2023/05/18 22:47:20;;;;;;;2.60;1.80;;;14.40;99.90;;;;;;6091266;23;20689;-82
2023/05/18 22:49:47;;;;;;;2.45;2.25;;;14.40;99.90;;;;;;6092917;23;20441;-82
2023/05/18 22:52:16;;;;;;;3.15;2.70;;;14.40;99.90;;;;;;6093280;23;20377;-82
2023/05/18 22:54:43;;;;;;;3.00;2.30;;;14.30;99.90;;;;;;6092446;23;20386;-82
2023/05/18 22:57:10;;;;;;;2.03;1.80;;;14.40;99.90;;;;;;6092904;23;20502;-82
2023/05/18 22:59:37;;;;;;;2.47;1.70;;;14.40;99.90;;;;;;6092360;23;20797;-81
2023/05/18 23:02:04;;;;;;;2.30;1.50;;;14.40;99.90;;;;;;6093624;23;20724;-81
2023/05/18 23:04:32;;;;;;;1.65;1.55;;;14.40;99.90;;;;;;6092640;23;20712;-81
2023/05/18 23:07:00;;;;;;;1.80;1.67;;;14.40;99.90;;;;;;6093122;23;20385;-81
2023/05/18 23:09:29;;;;;;;1.50;1.40;;;14.40;99.90;;;;;;6068349;23;20377;-80
2023/05/18 23:11:58;;;;;;;2.33;2.13;;;14.40;99.90;;;;;;6093768;23;20373;-81
2023/05/18 23:14:31;;;;;;;1.48;1.38;;;14.40;99.90;;;;;;6092385;23;20381;-81
2023/05/18 23:16:59;;;;;;;2.10;1.90;;;14.40;99.90;;;;;;6093006;23;20764;-81
2023/05/18 23:19:27;;;;;;;2.67;2.13;;;14.40;99.90;;;;;;6093259;23;20392;-81
2023/05/18 23:21:55;;;;;;;1.70;1.60;;;14.40;99.90;;;;;;6093291;23;20902;-80
2023/05/18 23:24:22;;;;;;;3.70;2.60;;;14.30;99.90;;;;;;6092516;23;20377;-81
2023/05/18 23:26:49;;;;;;;4.40;2.03;;;14.30;99.90;;;;;;6092676;23;20380;-80
2023/05/18 23:29:16;;;;;;;2.10;1.90;;;14.30;99.90;;;;;;6092475;23;20707;-81
2023/05/18 23:31:43;;;;;;;2.53;2.05;;;14.20;99.90;;;;;;6092461;23;20382;-80
2023/05/18 23:34:10;;;;;;;1.98;1.77;;;14.20;99.90;;;;;;6093060;23;20382;-81
2023/05/18 23:36:41;;;;;;;2.00;1.70;;;14.20;99.90;;;;;;6092409;23;20389;-80
2023/05/18 23:39:09;;;;;;;2.28;2.08;;;14.20;99.90;;;;;;6069693;23;20382;-81
2023/05/18 23:41:36;;;;;;;2.80;2.10;;;14.20;99.90;;;;;;6091837;23;20736;-81
2023/05/18 23:44:05;;;;;;;2.05;1.67;;;14.10;99.90;;;;;;6092964;23;20409;-81
2023/05/18 23:46:33;;;;;;;1.98;1.67;;;14.10;99.90;;;;;;6092049;23;20456;-81
2023/05/18 23:49:00;;;;;;;1.60;1.50;;;14.10;99.90;;;;;;6093069;23;20393;-81
2023/05/18 23:51:31;;;;;;;2.25;1.73;;;14.10;99.90;;;;;;6093372;23;20413;-81
2023/05/18 23:54:00;;;;;;;1.50;1.40;;;14.00;99.90;;;;;;6092460;23;20385;-81
2023/05/18 23:56:27;;;;;;;1.50;1.40;;;14.00;99.90;;;;;;6092851;23;20390;-81
2023/05/18 23:58:54;;;;;;;1.40;1.30;;;14.00;99.90;;;;;;6092161;23;20373;-81
